Time;durP1;ratioP1;P1;durP2;ratioP2;P2;SDS_P1;SDS_P2;PMS_P1;PMS_P2;Temp;Humidity;BMP_temperature;BMP_pressure;BME280_temperature;BME280_humidity;BME280_pressure;Samples;Min_cycle;Max_cycle;Signal;HPM_P1;HPM_P2
2022/05/28 00:00:53;;;;;;;4.30;1.48;;;;;17.80;102000.00;;;;5061784;28;20200;-80
2022/05/28 00:03:21;;;;;;;2.78;1.00;;;;;17.70;101996.00;;;;5067325;28;20246;-79
2022/05/28 00:05:49;;;;;;;4.43;1.42;;;;;17.70;102001.00;;;;5062198;28;20192;-79
2022/05/28 00:08:17;;;;;;;4.05;1.42;;;;;17.70;101993.00;;;;5053317;28;20633;-79
2022/05/28 00:10:45;;;;;;;2.28;1.00;;;;;17.70;101992.00;;;;5069164;28;20191;-80
2022/05/28 00:13:13;;;;;;;2.92;1.25;;;;;17.70;101990.00;;;;5053799;28;20203;-79
2022/05/28 00:15:41;;;;;;;3.25;1.10;;;;;17.60;101992.00;;;;5048711;28;20226;-80
2022/05/28 00:18:09;;;;;;;4.63;1.15;;;;;17.60;101988.00;;;;5048471;28;20235;-80
2022/05/28 00:20:38;;;;;;;4.28;1.38;;;;;17.50;101992.00;;;;5049366;28;20200;-80
2022/05/28 00:23:06;;;;;;;2.53;1.20;;;;;17.50;101990.00;;;;5068060;28;20245;-80
2022/05/28 00:25:33;;;;;;;2.25;0.98;;;;;17.50;101988.00;;;;5067530;28;20195;-80
2022/05/28 00:28:00;;;;;;;5.75;1.27;;;;;17.50;101980.00;;;;5069040;28;20202;-81
2022/05/28 00:30:28;;;;;;;4.47;0.98;;;;;17.50;101989.00;;;;5068686;28;20187;-80
2022/05/28 00:32:55;;;;;;;5.72;1.30;;;;;17.40;101990.00;;;;5054925;28;20565;-81
2022/05/28 00:35:22;;;;;;;3.60;0.95;;;;;17.40;101997.00;;;;5051210;28;20198;-81
2022/05/28 00:37:51;;;;;;;4.32;1.25;;;;;17.40;101994.00;;;;5048722;28;20627;-80
2022/05/28 00:40:23;;;;;;;4.45;1.42;;;;;17.30;101991.00;;;;5069082;28;20191;-81
2022/05/28 00:42:51;;;;;;;3.05;1.08;;;;;17.30;101986.00;;;;5067619;28;20588;-80
2022/05/28 00:45:19;;;;;;;5.25;1.17;;;;;17.30;101994.00;;;;5068778;28;20206;-81
2022/05/28 00:47:49;;;;;;;3.42;1.20;;;;;17.30;101994.00;;;;5068154;28;20210;-80
2022/05/28 00:50:18;;;;;;;4.20;1.15;;;;;17.30;101989.00;;;;5068557;28;20653;-80
2022/05/28 00:52:46;;;;;;;3.05;1.15;;;;;17.20;101991.00;;;;5050379;28;20192;-81
2022/05/28 00:55:17;;;;;;;4.63;1.48;;;;;17.20;101998.00;;;;5068470;28;20203;-81
2022/05/28 00:57:45;;;;;;;5.55;1.40;;;;;17.20;101987.00;;;;5067641;28;20222;-80
2022/05/28 01:00:15;;;;;;;3.90;1.20;;;;;17.10;101983.00;;;;5065106;28;20198;-80
2022/05/28 01:02:52;;;;;;;3.50;1.35;;;;;17.10;101992.00;;;;5056708;28;20237;-80
2022/05/28 01:05:24;;;;;;;3.22;1.40;;;;;17.10;101989.00;;;;5061353;28;20572;-81
2022/05/28 01:08:01;;;;;;;4.72;1.60;;;;;17.00;101992.00;;;;5048894;28;20199;-81
2022/05/28 01:10:38;;;;;;;3.63;1.10;;;;;17.00;101988.00;;;;5048096;28;20286;-80
2022/05/28 01:13:10;;;;;;;3.20;1.30;;;;;17.00;101976.00;;;;5048573;28;20200;-81
2022/05/28 01:15:41;;;;;;;2.05;1.00;;;;;17.00;101969.00;;;;5063842;28;20210;-81
2022/05/28 01:18:12;;;;;;;3.58;1.05;;;;;16.90;101973.00;;;;5068434;28;20206;-81
2022/05/28 01:20:44;;;;;;;3.88;1.23;;;;;16.90;101973.00;;;;5068092;28;20195;-80
2022/05/28 01:23:23;;;;;;;2.83;1.02;;;;;16.80;101974.00;;;;5057889;28;20196;-81
2022/05/28 01:26:02;;;;;;;2.75;0.90;;;;;16.80;101971.00;;;;5051237;28;21018;-81
2022/05/28 01:28:35;;;;;;;2.22;0.93;;;;;16.80;101969.00;;;;5070076;28;20206;-81
2022/05/28 01:31:05;;;;;;;5.20;1.17;;;;;16.80;101964.00;;;;5053252;28;20673;-81
2022/05/28 01:33:34;;;;;;;4.55;1.33;;;;;16.80;101959.00;;;;5058694;28;20206;-80
2022/05/28 01:36:05;;;;;;;2.28;0.77;;;;;16.70;101952.00;;;;5070356;28;20190;-81
2022/05/28 01:38:34;;;;;;;3.17;1.05;;;;;16.70;101956.00;;;;5072105;28;20281;-81
2022/05/28 01:41:02;;;;;;;2.55;0.95;;;;;16.70;101945.00;;;;5067600;28;20227;-81
2022/05/28 01:43:33;;;;;;;3.67;0.90;;;;;16.70;101948.00;;;;5052693;28;20270;-81
2022/05/28 01:46:00;;;;;;;1.92;0.70;;;;;16.70;101945.00;;;;5051997;28;20310;-81
2022/05/28 01:48:27;;;;;;;3.92;1.17;;;;;16.70;101949.00;;;;5068697;28;20207;-80
2022/05/28 01:50:56;;;;;;;4.50;1.15;;;;;16.60;101957.00;;;;5060491;28;20207;-81
2022/05/28 01:56:11;;;;;;;2.50;0.77;;;;;16.60;101947.00;;;;5071503;28;20275;-81
2022/05/28 01:58:40;;;;;;;3.90;0.88;;;;;16.60;101939.00;;;;5071699;28;20198;-80
2022/05/28 02:01:09;;;;;;;3.55;1.15;;;;;16.60;101940.00;;;;5065814;28;20676;-80
2022/05/28 02:03:40;;;;;;;3.42;0.90;;;;;16.60;101938.00;;;;5088332;28;20214;-80
2022/05/28 02:06:08;;;;;;;2.22;0.93;;;;;16.60;101945.00;;;;5086173;28;20199;-80
2022/05/28 02:08:39;;;;;;;8.45;1.52;;;;;16.60;101951.00;;;;5071255;28;20213;-80
2022/05/28 02:11:12;;;;;;;2.83;0.93;;;;;16.60;101951.00;;;;5070836;28;20199;-81
2022/05/28 02:13:54;;;;;;;5.55;1.75;;;;;16.50;101955.00;;;;5052408;28;20227;-81
2022/05/28 02:16:31;;;;;;;3.92;1.08;;;;;16.60;101958.00;;;;5051417;28;20254;-80
2022/05/28 02:19:02;;;;;;;5.13;1.05;;;;;16.60;101961.00;;;;5056018;28;21124;-80
2022/05/28 02:21:35;;;;;;;4.38;0.75;;;;;16.60;101961.00;;;;5071177;28;20198;-80
2022/05/28 02:24:08;;;;;;;5.20;1.02;;;;;16.60;101955.00;;;;5071505;28;20202;-79
2022/05/28 02:26:41;;;;;;;3.72;1.52;;;;;16.60;101959.00;;;;5050771;28;20196;-80
2022/05/28 02:29:10;;;;;;;2.33;0.65;;;;;16.70;101958.00;;;;5051656;28;20665;-81
2022/05/28 02:31:38;;;;;;;4.00;1.13;;;;;16.70;101959.00;;;;5051734;28;20564;-81
2022/05/28 02:34:05;;;;;;;5.63;1.00;;;;;16.70;101958.00;;;;5051571;28;20199;-80
2022/05/28 02:36:33;;;;;;;7.90;1.17;;;;;16.70;101960.00;;;;5057484;28;20276;-81
2022/05/28 02:39:00;;;;;;;3.65;0.95;;;;;16.80;101957.00;;;;5057419;28;20233;-80
2022/05/28 02:41:27;;;;;;;5.57;1.25;;;;;16.80;101961.00;;;;5055959;28;20452;-82
2022/05/28 02:43:54;;;;;;;2.90;0.50;;;;;16.80;101955.00;;;;5070118;28;20202;-81
2022/05/28 02:46:23;;;;;;;9.20;1.00;;;;;16.80;101952.00;;;;5071040;28;20539;-81
2022/05/28 02:48:50;;;;;;;7.25;1.15;;;;;16.90;101954.00;;;;5070704;28;20245;-80
2022/05/28 02:51:19;;;;;;;4.25;1.35;;;;;16.90;101956.00;;;;5070257;28;20587;-81
2022/05/28 02:53:47;;;;;;;5.90;1.23;;;;;16.90;101958.00;;;;5069657;28;20291;-80
2022/05/28 02:56:15;;;;;;;3.83;1.85;;;;;17.00;101952.00;;;;5071042;28;20194;-80
2022/05/28 02:58:42;;;;;;;2.63;0.90;;;;;17.00;101955.00;;;;5070077;28;20209;-80
2022/05/28 03:01:27;;;;;;;4.68;0.60;;;;;17.00;101958.00;;;;5052816;28;20196;-80
2022/05/28 03:03:55;;;;;;;6.88;1.13;;;;;17.10;101955.00;;;;5064578;28;20222;-81
2022/05/28 03:06:23;;;;;;;3.53;0.68;;;;;17.10;101957.00;;;;5065004;28;20196;-80
2022/05/28 03:08:50;;;;;;;4.93;0.70;;;;;17.10;101962.00;;;;5050194;28;20203;-80
2022/05/28 03:11:18;;;;;;;5.00;0.90;;;;;17.20;101960.00;;;;5060673;28;20199;-81
2022/05/28 03:13:45;;;;;;;5.38;0.98;;;;;17.20;101959.00;;;;5055346;28;20210;-81
2022/05/28 03:16:12;;;;;;;5.18;1.05;;;;;17.20;101955.00;;;;5062300;28;20297;-81
2022/05/28 03:18:41;;;;;;;4.18;0.57;;;;;17.20;101961.00;;;;5069314;28;20276;-81
2022/05/28 03:21:08;;;;;;;3.38;0.77;;;;;17.30;101965.00;;;;5049732;28;20206;-80
2022/05/28 03:23:36;;;;;;;3.03;0.77;;;;;17.30;101969.00;;;;5050285;28;20200;-81
2022/05/28 03:26:12;;;;;;;6.50;1.33;;;;;17.20;101973.00;;;;5049652;28;20211;-81
2022/05/28 03:28:39;;;;;;;4.32;0.93;;;;;17.30;101973.00;;;;5055860;28;20233;-80
2022/05/28 03:31:06;;;;;;;5.65;1.27;;;;;17.30;101969.00;;;;5070002;28;20253;-80
2022/05/28 03:33:34;;;;;;;3.15;1.30;;;;;17.30;101968.00;;;;5069309;28;20194;-81
2022/05/28 03:36:03;;;;;;;4.43;1.00;;;;;17.30;101974.00;;;;5069595;28;21021;-81
2022/05/28 03:38:30;;;;;;;6.30;1.30;;;;;17.30;101975.00;;;;5069032;28;20225;-80
2022/05/28 03:40:58;;;;;;;4.20;0.80;;;;;17.30;101979.00;;;;5059926;28;20242;-80
2022/05/28 03:43:25;;;;;;;4.25;0.65;;;;;17.30;101983.00;;;;5050248;28;20202;-80
2022/05/28 03:45:53;;;;;;;5.68;1.33;;;;;17.30;101979.00;;;;5057834;28;20191;-81
2022/05/28 03:48:21;;;;;;;4.15;0.77;;;;;17.30;101984.00;;;;5069847;28;20198;-81
2022/05/28 03:50:48;;;;;;;2.60;0.63;;;;;17.30;101997.00;;;;5068417;28;20256;-81
2022/05/28 03:53:17;;;;;;;4.28;0.82;;;;;17.30;101988.00;;;;5061506;28;20207;-78
2022/05/28 03:55:44;;;;;;;6.75;1.25;;;;;17.30;101987.00;;;;5049198;28;20288;-78
2022/05/28 03:58:12;;;;;;;3.75;0.63;;;;;17.30;101991.00;;;;5065933;28;20269;-78
2022/05/28 04:00:40;;;;;;;3.65;1.00;;;;;17.30;101998.00;;;;5049329;28;20214;-78
2022/05/28 04:03:07;;;;;;;3.15;0.60;;;;;17.30;101997.00;;;;5049171;28;20664;-79
2022/05/28 04:05:36;;;;;;;2.38;0.50;;;;;17.30;101993.00;;;;5049075;28;20573;-79
2022/05/28 04:08:04;;;;;;;2.85;0.73;;;;;17.30;101996.00;;;;5067355;28;20207;-79
2022/05/28 04:10:32;;;;;;;4.13;0.75;;;;;17.30;101994.00;;;;5068527;28;20570;-80
2022/05/28 04:13:00;;;;;;;2.90;0.70;;;;;17.30;101996.00;;;;5069251;28;20202;-79
2022/05/28 04:15:28;;;;;;;8.25;1.10;;;;;17.30;101996.00;;;;5066074;28;20553;-79
2022/05/28 04:17:55;;;;;;;2.40;0.70;;;;;17.30;101997.00;;;;5068086;28;20239;-80
2022/05/28 04:20:23;;;;;;;3.38;0.93;;;;;17.30;102008.00;;;;5068715;28;20672;-79
2022/05/28 04:22:50;;;;;;;4.20;0.57;;;;;17.30;102005.00;;;;5068208;28;20218;-79
2022/05/28 04:25:18;;;;;;;4.00;0.90;;;;;17.30;102005.00;;;;5068561;28;20199;-79
2022/05/28 04:27:46;;;;;;;5.22;0.75;;;;;17.40;102009.00;;;;5068311;28;20203;-79
2022/05/28 04:30:14;;;;;;;2.15;0.32;;;;;17.40;102004.00;;;;5062084;28;20207;-79
2022/05/28 04:32:42;;;;;;;3.35;1.02;;;;;17.40;102005.00;;;;5054490;28;20600;-80
2022/05/28 04:35:09;;;;;;;1.63;0.32;;;;;17.40;102006.00;;;;5048863;28;20195;-80
2022/05/28 04:37:37;;;;;;;1.95;0.52;;;;;17.40;102012.00;;;;5048687;28;20234;-79
2022/05/28 04:40:05;;;;;;;3.45;0.70;;;;;17.50;102010.00;;;;5053251;28;20193;-79
2022/05/28 04:42:32;;;;;;;2.70;0.47;;;;;17.50;102018.00;;;;5059661;28;20230;-80
2022/05/28 04:45:01;;;;;;;1.40;0.30;;;;;17.50;102013.00;;;;5048024;28;20210;-79
2022/05/28 04:47:28;;;;;;;1.55;0.45;;;;;17.60;102018.00;;;;5048697;28;20286;-79
2022/05/28 04:49:56;;;;;;;2.47;0.40;;;;;17.60;102014.00;;;;5081115;28;20204;-79
2022/05/28 04:52:24;;;;;;;1.77;0.60;;;;;17.60;102018.00;;;;5088693;28;20191;-80
2022/05/28 04:54:51;;;;;;;1.23;0.40;;;;;17.70;102011.00;;;;5047837;28;20204;-79
2022/05/28 04:57:18;;;;;;;3.22;0.60;;;;;17.70;102018.00;;;;5053431;28;20284;-80
2022/05/28 04:59:46;;;;;;;3.63;0.63;;;;;17.80;102016.00;;;;5068620;28;20248;-79
2022/05/28 05:02:15;;;;;;;3.78;0.40;;;;;17.80;102022.00;;;;5050566;28;20230;-79
2022/05/28 05:04:42;;;;;;;2.90;0.57;;;;;17.80;102026.00;;;;5054401;28;20281;-80
2022/05/28 05:07:11;;;;;;;1.45;0.52;;;;;17.90;102022.00;;;;5066251;28;20191;-79
2022/05/28 05:09:38;;;;;;;3.15;0.65;;;;;17.90;102025.00;;;;5074214;28;20195;-79
2022/05/28 05:12:06;;;;;;;1.83;0.82;;;;;18.00;102025.00;;;;5074980;28;20779;-79
2022/05/28 05:14:33;;;;;;;1.58;0.65;;;;;18.00;102025.00;;;;5073528;28;20215;-80
2022/05/28 05:17:00;;;;;;;5.63;0.57;;;;;18.10;102022.00;;;;5074382;28;20213;-81
2022/05/28 05:19:29;;;;;;;3.10;0.50;;;;;18.10;102023.00;;;;5074546;28;20595;-81
2022/05/28 05:21:56;;;;;;;1.20;0.43;;;;;18.20;102030.00;;;;5074294;28;20202;-81
2022/05/28 05:24:24;;;;;;;2.00;0.60;;;;;18.20;102028.00;;;;5058938;28;20214;-79
2022/05/28 05:26:52;;;;;;;2.83;0.28;;;;;18.30;102032.00;;;;5054558;28;20191;-82
2022/05/28 05:29:19;;;;;;;0.73;0.25;;;;;18.30;102033.00;;;;5055248;28;20203;-80
2022/05/28 05:31:47;;;;;;;3.13;0.85;;;;;18.40;102034.00;;;;5062800;28;20202;-79
2022/05/28 05:34:14;;;;;;;2.22;0.55;;;;;18.40;102031.00;;;;5074426;28;20626;-80
2022/05/28 05:36:43;;;;;;;1.00;0.22;;;;;18.40;102033.00;;;;5070129;28;20195;-82
2022/05/28 05:39:10;;;;;;;2.75;0.77;;;;;18.50;102039.00;;;;5056163;28;20227;-82
2022/05/28 05:41:39;;;;;;;2.17;0.40;;;;;18.50;102036.00;;;;5069269;28;20264;-81
2022/05/28 05:44:07;;;;;;;2.05;0.40;;;;;18.50;102039.00;;;;5064780;28;20199;-81
2022/05/28 05:46:34;;;;;;;3.97;1.05;;;;;18.60;102038.00;;;;5054693;28;20199;-80
2022/05/28 05:49:02;;;;;;;3.47;0.82;;;;;18.60;102042.00;;;;5064910;28;20210;-80
2022/05/28 05:51:30;;;;;;;1.58;0.60;;;;;18.70;102049.00;;;;5075088;28;20193;-81
2022/05/28 05:53:59;;;;;;;2.10;0.50;;;;;18.70;102042.00;;;;5062604;28;20207;-80
2022/05/28 05:56:26;;;;;;;3.33;0.70;;;;;18.80;102043.00;;;;5055304;28;20195;-83
2022/05/28 05:58:53;;;;;;;4.07;0.82;;;;;18.80;102047.00;;;;5054508;28;20233;-81
2022/05/28 06:01:23;;;;;;;3.38;1.17;;;;;18.80;102052.00;;;;5066280;28;20257;-81
2022/05/28 06:03:51;;;;;;;3.90;0.80;;;;;18.90;102047.00;;;;5058808;28;20223;-80
2022/05/28 06:06:19;;;;;;;5.20;0.57;;;;;18.90;102046.00;;;;5067243;28;20657;-80
2022/05/28 06:08:47;;;;;;;0.88;0.32;;;;;19.00;102049.00;;;;5072497;28;20195;-81
2022/05/28 06:11:16;;;;;;;4.32;0.60;;;;;19.00;102051.00;;;;5054587;28;20776;-80
2022/05/28 06:13:43;;;;;;;2.65;0.32;;;;;19.10;102052.00;;;;5054223;28;20203;-81
2022/05/28 06:16:11;;;;;;;3.30;0.50;;;;;19.10;102049.00;;;;5051179;28;20728;-80
2022/05/28 06:18:38;;;;;;;3.30;0.57;;;;;19.20;102055.00;;;;5051578;28;20702;-80
2022/05/28 06:21:06;;;;;;;4.07;0.40;;;;;19.30;102044.00;;;;5065459;28;20218;-82
2022/05/28 06:23:33;;;;;;;4.45;0.70;;;;;19.30;102051.00;;;;5061038;28;20207;-81
2022/05/28 06:26:02;;;;;;;2.58;0.50;;;;;19.40;102049.00;;;;5050228;28;20550;-80
2022/05/28 06:28:31;;;;;;;3.60;0.60;;;;;19.50;102052.00;;;;5051305;28;20282;-82
2022/05/28 06:31:00;;;;;;;1.23;0.40;;;;;19.50;102062.00;;;;5051680;28;20199;-82
2022/05/28 06:33:27;;;;;;;3.80;0.52;;;;;19.60;102059.00;;;;5066506;28;20207;-81
2022/05/28 06:35:57;;;;;;;2.10;0.30;;;;;19.60;102067.00;;;;5070359;28;20210;-81
2022/05/28 06:38:24;;;;;;;2.53;0.60;;;;;19.70;102054.00;;;;5065936;28;20318;-83
2022/05/28 06:40:51;;;;;;;2.72;0.70;;;;;19.80;102057.00;;;;5067619;28;20287;-80
2022/05/28 06:43:20;;;;;;;3.22;0.52;;;;;19.80;102063.00;;;;5070342;28;20198;-80
2022/05/28 06:45:49;;;;;;;2.53;0.55;;;;;19.90;102059.00;;;;5069779;28;20320;-80
2022/05/28 06:48:16;;;;;;;2.33;0.45;;;;;20.00;102077.00;;;;5070764;28;20202;-81
2022/05/28 06:53:29;;;;;;;4.55;0.85;;;;;20.10;102064.00;;;;5068610;28;20233;-82
2022/05/28 06:55:57;;;;;;;4.07;0.93;;;;;20.10;102069.00;;;;5054477;28;20286;-81
2022/05/28 06:58:25;;;;;;;4.97;1.25;;;;;20.20;102067.00;;;;5069542;28;20316;-80
2022/05/28 07:00:53;;;;;;;1.27;0.40;;;;;20.20;102075.00;;;;5057095;28;20215;-81
2022/05/28 07:03:22;;;;;;;1.95;0.73;;;;;20.30;102064.00;;;;5066318;28;20233;-80
2022/05/28 07:05:50;;;;;;;15.95;1.63;;;;;20.40;102069.00;;;;5069333;28;20195;-82
2022/05/28 07:08:17;;;;;;;1.92;0.52;;;;;20.50;102074.00;;;;5069353;28;20203;-80
2022/05/28 07:10:47;;;;;;;5.38;0.70;;;;;20.60;102064.00;;;;5063799;28;20211;-82
2022/05/28 07:13:14;;;;;;;2.90;0.60;;;;;20.60;102072.00;;;;5069532;28;20211;-82
2022/05/28 07:15:42;;;;;;;4.47;0.68;;;;;20.60;102075.00;;;;5068973;28;20208;-81
2022/05/28 07:18:10;;;;;;;2.72;0.50;;;;;20.60;102073.00;;;;5069467;28;20313;-84
2022/05/28 07:20:38;;;;;;;1.13;0.50;;;;;20.70;102074.00;;;;5069167;28;20203;-81
2022/05/28 07:23:11;;;;;;;3.65;0.65;;;;;20.70;102073.00;;;;5069578;28;20253;-82
2022/05/28 07:25:42;;;;;;;2.28;0.70;;;;;20.70;102080.00;;;;5068563;28;20198;-80
2022/05/28 07:30:55;;;;;;;2.15;0.38;;;;;20.70;102088.00;;;;5069561;28;20237;-81
2022/05/28 07:33:25;;;;;;;3.20;0.50;;;;;20.60;102085.00;;;;5064721;28;20201;-81
2022/05/28 07:35:52;;;;;;;6.72;0.70;;;;;20.60;102087.00;;;;5049429;28;20700;-82
2022/05/28 07:38:22;;;;;;;3.17;0.50;;;;;20.50;102089.00;;;;5055607;28;20296;-81
2022/05/28 07:40:49;;;;;;;1.70;0.32;;;;;20.50;102090.00;;;;5067481;28;20684;-81
2022/05/28 07:43:17;;;;;;;5.65;0.50;;;;;20.50;102089.00;;;;5062333;28;20200;-80
2022/05/28 07:45:45;;;;;;;2.67;0.32;;;;;20.50;102084.00;;;;5049002;28;20196;-80
2022/05/28 07:48:14;;;;;;;4.75;0.75;;;;;20.50;102077.00;;;;5061192;28;20573;-81
2022/05/28 07:50:44;;;;;;;1.20;0.35;;;;;20.60;102071.00;;;;5068990;28;20195;-81
2022/05/28 07:53:11;;;;;;;4.25;0.90;;;;;20.70;102069.00;;;;5069165;28;20215;-82
2022/05/28 07:55:39;;;;;;;1.98;0.45;;;;;20.80;102073.00;;;;5069967;28;20191;-82
2022/05/28 07:58:08;;;;;;;3.42;0.60;;;;;20.90;102079.00;;;;5069596;28;20198;-81
2022/05/28 08:00:39;;;;;;;2.92;0.20;;;;;21.00;102073.00;;;;5069384;28;20206;-82
2022/05/28 08:03:07;;;;;;;3.92;0.75;;;;;21.10;102088.00;;;;5063799;28;20299;-81
2022/05/28 08:05:34;;;;;;;3.63;0.65;;;;;21.20;102080.00;;;;5074351;28;20194;-82
2022/05/28 08:08:04;;;;;;;2.90;0.50;;;;;21.20;102075.00;;;;5063562;28;20195;-81
2022/05/28 08:10:31;;;;;;;2.47;0.32;;;;;21.30;102077.00;;;;5060930;28;20252;-81
2022/05/28 08:13:01;;;;;;;2.58;0.60;;;;;21.40;102067.00;;;;5050050;28;21047;-83
2022/05/28 08:15:29;;;;;;;1.92;0.60;;;;;21.50;102068.00;;;;5049982;28;20230;-80
2022/05/28 08:17:56;;;;;;;3.22;0.75;;;;;21.70;102074.00;;;;5064841;28;20199;-82
2022/05/28 08:23:08;;;;;;;3.20;0.60;;;;;21.70;102063.00;;;;5067802;28;20210;-81
2022/05/28 08:23:12;;;;;;;2.67;0.47;;;;;21.80;102073.00;;;;5065904;28;20198;-81
2022/05/28 08:25:40;;;;;;;1.60;0.55;;;;;22.00;102060.00;;;;5048723;28;20692;-80
2022/05/28 08:28:08;;;;;;;0.88;0.32;;;;;22.00;102071.00;;;;5059703;28;20199;-82
2022/05/28 08:30:37;;;;;;;3.35;0.40;;;;;22.10;102066.00;;;;5068732;28;20207;-81
2022/05/28 08:33:06;;;;;;;2.53;1.13;;;;;22.00;102071.00;;;;5067890;28;20740;-81
2022/05/28 08:35:34;;;;;;;3.67;0.75;;;;;22.00;102078.00;;;;5068990;28;20203;-82
2022/05/28 08:38:06;;;;;;;3.58;0.73;;;;;22.00;102079.00;;;;5066665;28;20241;-81
2022/05/28 08:40:43;;;;;;;1.80;0.35;;;;;22.00;102074.00;;;;5069162;28;20199;-81
2022/05/28 08:43:11;;;;;;;2.65;0.60;;;;;22.10;102074.00;;;;5068539;28;20203;-80
2022/05/28 08:45:38;;;;;;;3.38;0.82;;;;;22.10;102073.00;;;;5060444;28;20677;-81
2022/05/28 08:48:06;;;;;;;2.53;0.50;;;;;22.20;102071.00;;;;5049141;28;20187;-81
2022/05/28 08:50:42;;;;;;;3.40;0.80;;;;;22.20;102076.00;;;;5048587;28;20200;-82
2022/05/28 08:53:16;;;;;;;1.83;0.50;;;;;22.20;102085.00;;;;5047947;28;20688;-83
2022/05/28 08:55:47;;;;;;;6.07;0.77;;;;;22.20;102080.00;;;;5055896;28;20199;-81
2022/05/28 08:58:18;;;;;;;5.30;0.65;;;;;22.20;102080.00;;;;5049016;28;20195;-81
2022/05/28 09:00:48;;;;;;;2.67;0.95;;;;;22.10;102080.00;;;;5059325;28;20635;-81
2022/05/28 09:03:20;;;;;;;3.75;0.85;;;;;22.10;102082.00;;;;5048670;28;20220;-81
2022/05/28 09:05:51;;;;;;;1.38;0.30;;;;;22.20;102086.00;;;;5048164;28;20195;-82
2022/05/28 09:08:28;;;;;;;2.85;0.93;;;;;22.20;102068.00;;;;5066332;28;20195;-80
2022/05/28 09:11:00;;;;;;;1.42;0.38;;;;;22.40;102072.00;;;;5048261;28;20322;-81
2022/05/28 09:13:33;;;;;;;4.13;0.70;;;;;22.50;102077.00;;;;5065455;28;20211;-82
2022/05/28 09:16:03;;;;;;;1.13;0.68;;;;;22.70;102084.00;;;;5068118;28;20210;-81
2022/05/28 09:18:35;;;;;;;2.38;0.63;;;;;22.70;102085.00;;;;5064258;28;20199;-80
2022/05/28 09:21:03;;;;;;;4.47;0.90;;;;;22.70;102082.00;;;;5067829;28;20674;-81
2022/05/28 09:23:41;;;;;;;2.03;0.85;;;;;22.60;102081.00;;;;5067781;28;20210;-81
2022/05/28 09:26:11;;;;;;;3.10;0.65;;;;;22.70;102082.00;;;;5054330;28;20559;-80
2022/05/28 09:28:50;;;;;;;3.47;0.70;;;;;22.60;102080.00;;;;5047887;28;20188;-81
2022/05/28 09:31:39;;;;;;;3.80;0.90;;;;;22.60;102088.00;;;;5080265;28;20225;-82
2022/05/28 09:34:23;;;;;;;3.45;0.50;;;;;22.50;102098.00;;;;5073590;28;20199;-83
2022/05/28 09:36:57;;;;;;;1.50;0.60;;;;;22.50;102094.00;;;;5067132;28;20206;-82
2022/05/28 09:39:42;;;;;;;4.68;1.60;;;;;22.50;102085.00;;;;5060535;28;20792;-82
2022/05/28 09:42:19;;;;;;;1.55;0.57;;;;;22.60;102079.00;;;;5067929;28;20230;-80
2022/05/28 09:45:10;;;;;;;1.15;0.30;;;;;22.70;102080.00;;;;5067230;28;20195;-82
2022/05/28 09:47:49;;;;;;;4.93;0.82;;;;;22.80;102076.00;;;;5066682;28;20284;-82
2022/05/28 09:50:23;;;;;;;3.40;0.98;;;;;23.00;102080.00;;;;5056527;28;20259;-82
2022/05/28 09:55:56;;;;;;;2.67;0.70;;;;;23.00;102074.00;;;;5071114;28;20224;-82
2022/05/28 09:58:29;;;;;;;1.55;0.43;;;;;23.10;102075.00;;;;5071533;28;20290;-82
2022/05/28 10:01:06;;;;;;;0.90;0.52;;;;;23.10;102073.00;;;;5062030;28;20333;-82
2022/05/28 10:06:19;;;;;;;2.22;0.65;;;;;23.20;102082.00;;;;5070771;28;20206;-82
2022/05/28 10:08:46;;;;;;;2.10;0.40;;;;;23.10;102078.00;;;;5071061;28;20673;-80
2022/05/28 10:11:18;;;;;;;4.43;0.95;;;;;23.00;102074.00;;;;5056833;28;20249;-80
2022/05/28 10:13:48;;;;;;;2.92;0.60;;;;;23.00;102071.00;;;;5068116;28;20727;-82
2022/05/28 10:16:19;;;;;;;2.20;0.82;;;;;22.90;102073.00;;;;5051387;28;20195;-82
2022/05/28 10:18:53;;;;;;;4.47;0.65;;;;;22.90;102063.00;;;;5050767;28;20199;-81
2022/05/28 10:21:27;;;;;;;2.00;0.55;;;;;23.00;102071.00;;;;5070744;28;20217;-81
2022/05/28 10:23:56;;;;;;;5.50;0.60;;;;;23.00;102066.00;;;;5071241;28;20199;-81
2022/05/28 10:26:29;;;;;;;8.27;1.13;;;;;23.10;102069.00;;;;5071003;28;20206;-80
2022/05/28 10:29:01;;;;;;;1.42;0.45;;;;;23.00;102073.00;;;;5059270;28;20207;-81
2022/05/28 10:31:32;;;;;;;3.47;0.55;;;;;23.00;102080.00;;;;5070913;28;20325;-82
2022/05/28 10:34:00;;;;;;;3.72;0.60;;;;;23.00;102078.00;;;;5055392;28;20203;-80
2022/05/28 10:36:30;;;;;;;2.05;0.55;;;;;23.10;102085.00;;;;5051374;28;20199;-82
2022/05/28 10:39:09;;;;;;;2.03;0.60;;;;;23.00;102081.00;;;;5068005;28;20222;-81
2022/05/28 10:41:38;;;;;;;3.65;1.13;;;;;23.20;102063.00;;;;5051216;28;20219;-81
2022/05/28 10:44:08;;;;;;;5.60;1.15;;;;;23.30;102059.00;;;;5050229;28;20581;-83
2022/05/28 10:46:50;;;;;;;5.95;0.93;;;;;23.40;102066.00;;;;5057509;28;20218;-81
2022/05/28 10:49:30;;;;;;;3.95;0.50;;;;;23.50;102058.00;;;;5070695;28;20289;-81
2022/05/28 10:52:06;;;;;;;1.77;0.50;;;;;23.60;102059.00;;;;5070324;28;20203;-80
2022/05/28 10:54:49;;;;;;;0.82;0.20;;;;;23.50;102058.00;;;;5070239;28;20210;-82
2022/05/28 10:57:43;;;;;;;2.55;0.40;;;;;23.50;102055.00;;;;5063146;28;20204;-81
2022/05/28 11:00:15;;;;;;;1.65;0.63;;;;;23.60;102053.00;;;;5029933;28;20269;-83
2022/05/28 11:03:25;;;;;;;2.53;0.77;;;;;23.50;102050.00;;;;5050933;28;20211;-81
2022/05/28 11:06:12;;;;;;;3.10;1.00;;;;;23.60;102051.00;;;;4987141;28;20618;-82
2022/05/28 11:08:46;;;;;;;1.45;0.52;;;;;23.70;102045.00;;;;5055738;28;20715;-81
2022/05/28 11:11:36;;;;;;;2.75;0.32;;;;;23.60;102052.00;;;;5070558;28;20289;-81
2022/05/28 11:14:28;;;;;;;2.72;0.50;;;;;23.50;102064.00;;;;5070126;28;20202;-82
2022/05/28 11:17:10;;;;;;;1.48;0.68;;;;;23.50;102049.00;;;;5050372;28;20207;-81
2022/05/28 11:19:49;;;;;;;1.42;0.65;;;;;23.40;102057.00;;;;5049830;28;20223;-81
2022/05/28 11:22:42;;;;;;;3.67;0.52;;;;;23.30;102059.00;;;;5049961;28;20195;-82
2022/05/28 11:25:14;;;;;;;1.98;0.52;;;;;23.30;102047.00;;;;5058126;28;20236;-82
2022/05/28 11:27:50;;;;;;;2.85;0.50;;;;;23.30;102045.00;;;;5069243;28;20191;-81
2022/05/28 11:30:21;;;;;;;2.03;0.65;;;;;23.30;102050.00;;;;5063560;28;20199;-83
2022/05/28 11:32:55;;;;;;;1.05;0.50;;;;;23.30;102042.00;;;;5065120;28;20192;-82
2022/05/28 11:35:37;;;;;;;3.33;0.95;;;;;23.30;102055.00;;;;5062025;28;20202;-82
2022/05/28 11:38:12;;;;;;;3.47;0.90;;;;;23.30;102061.00;;;;5068198;28;20191;-81
2022/05/28 11:40:50;;;;;;;4.60;0.80;;;;;23.20;102061.00;;;;5057470;28;20231;-81
2022/05/28 11:43:23;;;;;;;4.25;1.27;;;;;23.20;102065.00;;;;5049416;28;20200;-82
2022/05/28 11:45:55;;;;;;;2.85;0.65;;;;;23.10;102060.00;;;;5066405;28;20199;-81
2022/05/28 11:51:27;;;;;;;2.47;0.68;;;;;23.10;102055.00;;;;5069124;28;20210;-83
2022/05/28 11:51:28;;;;;;;2.28;0.57;;;;;23.10;102045.00;;;;5069143;28;20290;-80
2022/05/28 11:54:01;;;;;;;2.45;0.60;;;;;23.10;102041.00;;;;5069162;28;20302;-81
2022/05/28 11:56:29;;;;;;;3.25;0.50;;;;;23.20;102046.00;;;;5069431;28;20195;-83
2022/05/28 11:59:00;;;;;;;0.93;0.43;;;;;23.20;102036.00;;;;5068594;28;20211;-82
2022/05/28 12:01:30;;;;;;;1.08;0.50;;;;;23.20;102027.00;;;;5055638;28;20250;-80
2022/05/28 12:04:00;;;;;;;2.05;0.65;;;;;23.20;102036.00;;;;5063124;28;20226;-83
2022/05/28 12:06:31;;;;;;;0.38;0.22;;;;;23.30;102028.00;;;;5049879;28;20211;-83
2022/05/28 12:09:05;;;;;;;1.15;0.35;;;;;23.30;102022.00;;;;5048595;28;20215;-81
2022/05/28 12:11:41;;;;;;;2.88;0.85;;;;;23.30;102036.00;;;;5061761;28;20206;-80
2022/05/28 12:14:21;;;;;;;1.25;0.52;;;;;23.30;102023.00;;;;5068012;28;20198;-81
2022/05/28 12:17:01;;;;;;;3.90;0.70;;;;;23.20;102023.00;;;;5068805;28;20198;-82
2022/05/28 12:19:30;;;;;;;1.95;0.70;;;;;23.30;102026.00;;;;5068793;28;20587;-83
2022/05/28 12:22:09;;;;;;;1.00;0.47;;;;;23.10;102024.00;;;;5067821;28;20199;-82
2022/05/28 12:24:40;;;;;;;3.08;0.40;;;;;23.20;102016.00;;;;5068782;28;20214;-81
2022/05/28 12:27:21;;;;;;;2.80;0.50;;;;;23.20;102030.00;;;;5069117;28;20203;-84
2022/05/28 12:30:00;;;;;;;3.45;0.90;;;;;23.10;102019.00;;;;5068107;28;20198;-81
2022/05/28 12:32:30;;;;;;;2.45;0.70;;;;;23.10;102023.00;;;;5068868;28;20655;-81
2022/05/28 12:35:01;;;;;;;2.60;0.68;;;;;23.00;102036.00;;;;5059899;28;20195;-81
2022/05/28 12:37:32;;;;;;;2.00;0.57;;;;;22.90;102026.00;;;;5063112;28;20200;-82
2022/05/28 12:40:20;;;;;;;2.72;0.75;;;;;22.80;102024.00;;;;5067787;28;20223;-82